Armavir, Russia
Current Conditions -  °F | °C
As of 6:00 PM on Friday 19 Dec 2014 (Local Time) from URMT Reporting Station
Broken Clouds Broken Clouds  
Wind Chill: 43°   Ceiling: 10000
Heat Index: 46°   Visibility: 6mi
Dew Point: 37°   Wind: 7mph
Humidity: 71%   Direction: 270°W
Pressure: 30.09"   Gusts: NA
Location:  44.99°N, 41.12°E
Report Text: URMT 191500Z 27003MPS 9999 SCT033 BKN100 08/03 Q1019 NOSIG RMKQFE725 SC060
Loading
Personal Weather Stations






























Interactive Weather Map New forecast layout! Learn more

10-Day Weather Forecast

Advertisements
Track Severe Weather on mobile